September 28, 2022

Time Code Weather Temp. Visibility Ceiling Wind METAR/SPECI
12:30
V
28 °C 10 km+ - 250° 250° 19 kt METAR DAAG 281130Z 25019KT 9999 FEW026TCU 28/14 Q1013
12:00
V
27 °C 10 km+ - 270° 270° 17 kt METAR DAAG 281100Z 27017KT 9999 FEW030TCU 27/15 Q1013
11:30
V
27 °C 10 km+ - 280° 280° 18 kt METAR DAAG 281030Z 28018KT 9999 SCT030TCU 27/13 Q1013
11:00
V
27 °C 10 km+ - 260° 260° 15 kt METAR DAAG 281000Z 26015KT 9999 SCT030TCU 27/13 Q1013
10:30
V
26 °C 10 km+ - 250° 250° 17 kt METAR DAAG 280930Z 25017KT 9999 FEW030TCU 26/12 Q1013
10:00
V
25 °C 10 km+ - 230° 230° 11 kt METAR DAAG 280900Z 23011KT 200V270 9999 FEW030TCU 25/11 Q1013
09:30
V
24 °C 10 km+ - 220° 220° 7 kt METAR DAAG 280830Z 22007KT 190V250 9999 FEW030 24/11 Q1013
09:00
V
22 °C 10 km+ - 210° 210° 5 kt METAR DAAG 280800Z 21005KT 180V240 CAVOK 22/11 Q1013
08:30
V
21 °C 10 km+ - 240° 240° 8 kt METAR DAAG 280730Z 24008KT CAVOK 21/11 Q1013
08:00
V
18 °C 10 km+ - 220° 220° 7 kt METAR DAAG 280700Z 22007KT CAVOK 18/11 Q1013
07:00
V
15 °C 10 km+ - 220° 220° 4 kt METAR DAAG 280600Z 22004KT 9999 FEW023 15/11 Q1013
06:30
V
14 °C 10 km+ - 220° 220° 3 kt METAR DAAG 280530Z 22003KT CAVOK 14/11 Q1013
06:00
V
14 °C 10 km+ - 180° 180° 4 kt METAR DAAG 280500Z 18004KT CAVOK 14/11 Q1013
05:30
V
14 °C 10 km+ - Var Var 2 kt METAR DAAG 280430Z VRB02KT CAVOK 14/11 Q1014
05:00
V
14 °C 10 km+ - 190° 190° 4 kt METAR DAAG 280400Z 19004KT CAVOK 14/11 Q1014
04:00
V
15 °C 10 km+ - 140° 140° 3 kt METAR DAAG 280300Z 14003KT CAVOK 15/11 Q1014
03:30
V
16 °C 10 km+ - Var Var 2 kt METAR DAAG 280230Z VRB02KT CAVOK 16/11 Q1014
03:00
V
16 °C 10 km+ - 260° 260° 2 kt METAR DAAG 280200Z 26002KT CAVOK 16/12 Q1014
02:30
V
16 °C 10 km+ - Var Var 2 kt METAR DAAG 280130Z VRB02KT CAVOK 16/12 Q1015
02:00
V
17 °C 10 km+ - 170° 170° 2 kt METAR DAAG 280100Z 17002KT CAVOK 17/13 Q1015
01:30
V
17 °C 10 km+ - 180° 180° 2 kt METAR DAAG 280030Z 18002KT CAVOK 17/12 Q1015
01:00
V
18 °C 10 km+ - 170° 170° 4 kt METAR DAAG 280000Z 17004KT CAVOK 18/13 Q1015
00:30
V
19 °C 10 km+ - 200° 200° 2 kt METAR DAAG 272330Z 20002KT 9999 FEW026 19/14 Q1015
00:00
V
19 °C 10 km+ - Var 000° 0 kt METAR DAAG 272300Z 00000KT 9999 FEW026 19/14 Q1016

September 27, 2022

Time Code Weather Temp. Visibility Ceiling Wind METAR/SPECI
23:30
V
20 °C 10 km+ - Var Var 1 kt METAR DAAG 272230Z VRB01KT 9999 FEW026 20/14 Q1016
23:00
V
19 °C 10 km+ - 210° 210° 3 kt METAR DAAG 272200Z 21003KT 9999 FEW026 19/14 Q1016
22:30
V
20 °C 10 km+ - 200° 200° 4 kt METAR DAAG 272130Z 20004KT 9999 FEW026 20/14 Q1016
22:00
V
20 °C 10 km+ - 200° 200° 4 kt METAR DAAG 272100Z 20004KT 170V230 9999 FEW026 20/15 Q1016
21:30
V
21 °C 10 km+ - 230° 230° 4 kt METAR DAAG 272030Z 23004KT 190V250 9999 FEW026 21/16 Q1016
21:00
V
21 °C 10 km+ - 220° 220° 3 kt METAR DAAG 272000Z 22003KT 9999 FEW026 21/16 Q1016
20:30
V
21 °C 10 km+ - 220° 220° 4 kt METAR DAAG 271930Z 22004KT 9999 FEW026TCU 21/17 Q1016
20:00
V
22 °C 10 km+ - 240° 240° 9 kt METAR DAAG 271900Z 24009KT 9999 FEW026 22/17 Q1016
19:00
V
23 °C 10 km+ - 260° 260° 11 kt METAR DAAG 271800Z 26011KT 9999 FEW026TCU 23/17 Q1015
18:30
V
23 °C 10 km+ - 270° 270° 14 kt METAR DAAG 271730Z 27014KT 9999 FEW026 23/16 Q1015
18:00
V
24 °C 10 km+ - 270° 270° 15 kt METAR DAAG 271700Z 27015KT 9999 FEW026 24/16 Q1014
17:00
V
25 °C 10 km+ - 260° 260° 14 kt METAR DAAG 271600Z 26014KT 9999 FEW026 25/15 Q1014
16:30
V
26 °C 10 km+ - 270° 270° 17 kt METAR DAAG 271530Z 27017KT 9999 FEW026 26/16 Q1014
16:00
V
26 °C 10 km+ - 270° 270° 19 kt METAR DAAG 271500Z 27019KT 9999 FEW026 26/15 Q1014
15:30
V
27 °C 10 km+ - 280° 280° 15 kt METAR DAAG 271430Z 28015KT 240V310 9999 FEW026 27/16 Q1014
15:00
V
27 °C 10 km+ - 280° 280° 16 kt METAR DAAG 271400Z 28016KT 250V310 9999 FEW026 27/16 Q1013
14:30
V
27 °C 10 km+ - 270° 270° 16 kt METAR DAAG 271330Z 27016KT 9999 FEW026 27/16 Q1014
14:00
V
28 °C 10 km+ - 270° 270° 13 - 25 kt METAR DAAG 271300Z 27013G25KT 240V300 9999 FEW026 28/14 Q1013
13:30
V
28 °C 10 km+ - 270° 270° 14 kt METAR DAAG 271230Z 27014KT 9999 FEW020TCU 28/12 Q1014
13:00
V
28 °C 10 km+ - 260° 260° 11 kt METAR DAAG 271200Z 26011KT 9999 FEW020TCU 28/13 Q1014
12:30
V
27 °C 10 km+ - 260° 260° 9 kt METAR DAAG 271130Z 26009KT 230V290 9999 FEW020TCU SCT080 27/13 Q1014
12:00
V
27 °C 10 km+ - 280° 280° 11 kt METAR DAAG 271100Z 28011KT 9999 FEW020TCU SCT080 27/13 Q1015
11:30
V
26 °C 10 km+ - 280° 280° 12 kt METAR DAAG 271030Z 28012KT 240V310 9999 FEW020TCU SCT080 26/14 Q1015
11:00
V
26 °C 10 km+ - 260° 260° 16 kt METAR DAAG 271000Z 26016KT 9999 FEW020TCU SCT080 26/14 Q1015
10:30
V
24 °C 10 km+ - 240° 240° 15 kt METAR DAAG 270930Z 24015KT 9999 FEW020TCU SCT080 24/13 Q1015
10:00
V
24 °C 10 km+ - 250° 250° 15 kt METAR DAAG 270900Z 25015KT 9999 FEW020TCU SCT080 24/14 Q1015
09:30
V
24 °C 10 km+ - 240° 240° 14 kt METAR DAAG 270830Z 24014KT 9999 FEW020TCU SCT086 24/12 Q1015
09:00
V
23 °C 10 km+ - 230° 230° 11 kt METAR DAAG 270800Z 23011KT 9999 FEW020TCU SCT083 23/13 Q1015
08:30
V
21 °C 10 km+ - 230° 230° 10 kt METAR DAAG 270730Z 23010KT 9999 FEW020TCU 21/13 Q1015
08:00
V
20 °C 10 km+ - 230° 230° 8 kt METAR DAAG 270700Z 23008KT 9999 FEW020TCU 20/14 Q1014
07:30
V
19 °C 10 km+ - 230° 230° 6 kt METAR DAAG 270630Z 23006KT 9999 FEW020TCU 19/14 Q1014
07:00
V
18 °C 10 km+ - 220° 220° 5 kt METAR DAAG 270600Z 22005KT 9999 FEW020TCU 18/14 Q1014
06:30
V
18 °C 10 km+ - 210° 210° 5 kt METAR DAAG 270530Z 21005KT 9999 FEW020TCU SCT040 18/14 Q1014
06:00
V
17 °C 10 km+ - 210° 210° 5 kt METAR DAAG 270500Z 21005KT 9999 FEW020TCU 17/13 Q1014
05:30
V
16 °C 10 km+ - 210° 210° 6 kt METAR DAAG 270430Z 21006KT 9999 FEW020TCU 16/13 Q1014
05:00
V
17 °C 10 km+ - 220° 220° 4 kt METAR DAAG 270400Z 22004KT 9999 FEW020TCU 17/13 Q1014
04:00
V
18 °C 10 km+ - 210° 210° 5 kt METAR DAAG 270300Z 21005KT 9999 FEW020TCU SCT080 18/14 Q1014
03:30
V
19 °C 10 km+ 7,000 ft 190° 190° 4 kt METAR DAAG 270230Z 19004KT 9999 FEW020TCU BKN070 19/14 Q1014
03:00
V
19 °C 10 km+ 7,000 ft 170° 170° 4 kt METAR DAAG 270200Z 17004KT 9999 FEW020TCU BKN070 19/15 Q1014
02:30
V
20 °C 10 km+ 7,000 ft Var Var 1 kt METAR DAAG 270130Z VRB01KT 9999 FEW020TCU BKN070 20/16 Q1014
02:00
V
21 °C 10 km+ 7,000 ft 210° 210° 3 kt METAR DAAG 270100Z 21003KT 9999 FEW020TCU BKN070 21/16 Q1015
01:30
V
21 °C 10 km+ 7,000 ft 230° 230° 3 kt METAR DAAG 270030Z 23003KT 9999 FEW020TCU BKN070 21/16 Q1015
01:00
V
21 °C 10 km+ 7,000 ft 210° 210° 4 kt METAR DAAG 270000Z 21004KT 9999 FEW020TCU BKN070 21/15 Q1015
00:30
V
22 °C 10 km+ 7,000 ft 210° 210° 4 kt METAR DAAG 262330Z 21004KT 9999 FEW020TCU BKN070 22/15 Q1015
00:00
V
22 °C 10 km+ 7,000 ft 250° 250° 7 kt METAR DAAG 262300Z 25007KT 9999 FEW020TCU BKN070 22/15 Q1015

September 26, 2022

Time Code Weather Temp. Visibility Ceiling Wind METAR/SPECI
23:30
V
23 °C 10 km+ 7,000 ft 200° 200° 3 kt METAR DAAG 262230Z 20003KT 160V240 9999 FEW020TCU BKN070 23/15 Q1015
23:00
V
22 °C 10 km+ 7,000 ft 170° 170° 4 kt METAR DAAG 262200Z 17004KT 9999 FEW020TCU BKN070 22/15 Q1015
22:30
V
22 °C 10 km+ 7,000 ft 190° 190° 3 kt METAR DAAG 262130Z 19003KT 9999 FEW020TCU BKN070 22/15 Q1015
22:00
V
22 °C 10 km+ 7,000 ft 200° 200° 3 kt METAR DAAG 262100Z 20003KT 9999 FEW020TCU BKN070 22/14 Q1015
21:30
V
22 °C 10 km+ 7,000 ft 210° 210° 4 kt METAR DAAG 262030Z 21004KT 9999 FEW020TCU BKN070 22/15 Q1015
21:00
V
22 °C 10 km+ 7,000 ft 200° 200° 4 kt METAR DAAG 262000Z 20004KT 170V230 9999 FEW020TCU BKN070 22/15 Q1015
20:30
V
22 °C 10 km+ 7,000 ft 220° 220° 6 kt METAR DAAG 261930Z 22006KT 9999 FEW020TCU BKN070 22/16 Q1015
20:00
V
23 °C 10 km+ 7,000 ft 230° 230° 8 kt METAR DAAG 261900Z 23008KT 9999 FEW020TCU FEW023CB BKN070 23/16 Q1014
19:30
V
23 °C 10 km+ 7,000 ft 230° 230° 6 kt METAR DAAG 261830Z 23006KT 9999 FEW020TCU FEW023CB BKN070 23/16 Q1014
19:00
V
23 °C 10 km+ 7,000 ft 220° 220° 8 kt METAR DAAG 261800Z 22008KT 9999 FEW020TCU FEW023CB BKN070 23/17 Q1013
18:30
V
22 °C 10 km+ 7,000 ft 230° 230° 11 kt METAR DAAG 261730Z 23011KT 9999 FEW020TCU FEW023CB BKN070 22/18 Q1013
18:00
V
24 °C 10 km+ 7,000 ft 270° 270° 11 kt METAR DAAG 261700Z 27011KT 9999 FEW020TCU FEW023CB BKN070 24/17 Q1013
17:30
V
25 °C 10 km+ 7,000 ft 270° 270° 14 kt METAR DAAG 261630Z 27014KT 9999 FEW020TCU FEW023CB BKN070 25/17 Q1013
17:00
V
26 °C 10 km+ 7,000 ft 280° 280° 17 kt METAR DAAG 261600Z 28017KT 9999 FEW020TCU FEW023CB BKN070 26/15 Q1013
16:30
V
26 °C 10 km+ 7,000 ft 280° 280° 16 kt METAR DAAG 261530Z 28016KT 9999 FEW020TCU FEW023CB BKN070 26/14 Q1012
16:00
V
26 °C 10 km+ 7,000 ft 270° 270° 17 kt METAR DAAG 261500Z 27017KT 9999 FEW020TCU FEW023CB BKN070 26/14 Q1012
15:30
V
26 °C 10 km+ 8,000 ft 270° 270° 16 kt METAR DAAG 261430Z 27016KT 9999 FEW020TCU FEW023CB BKN080 26/15 Q1012
15:00
V
27 °C 10 km+ 8,000 ft 270° 270° 12 kt METAR DAAG 261400Z 27012KT 240V300 9999 FEW020TCU FEW023CB BKN080 27/15 Q1012
14:30
V
27 °C 10 km+ - 300° 300° 12 kt METAR DAAG 261330Z 30012KT 9999 FEW023TCU SCT080 27/16 Q1012
14:00
V
27 °C 10 km+ - 280° 280° 11 kt METAR DAAG 261300Z 28011KT 9999 FEW023TCU SCT080 27/16 Q1012
13:30
V
29 °C 10 km+ - 310° 310° 15 kt METAR DAAG 261230Z 31015KT 9999 FEW023TCU SCT080 29/14 Q1012
13:00
V
28 °C 10 km+ - 280° 280° 12 kt METAR DAAG 261200Z 28012KT 240V310 9999 FEW023TCU SCT080 28/15 Q1012
Older data

We and third parties follow your internet behavior on our website with cookies. If you continue, we assume you agree with our cookie policy. Learn more